Member area
Imprimable
Brussels, 13/09/2020, BEL - Bxl Tour
List of reports > Loisirs - Result
Search: Page: [1]
254 Entries
 
Complains are not accepted anymore. Results are final.
Category
PosNrNameAgeNATTeamTimeTkmMoy.PlaceNameScrCity
1.1722SCHEYLTJENS Isabelle31BEL1:00:141:31 39.851DAM146HEVERLEE
2.1775LENAERTS Lindsey26BEL1:00:181:31 39.802DAM150DILBEEK
3.1975HENRION Ludivine36BEL1:00:341:31 39.643DAM169NOVILLE-SUR-MEHAIGNE
4.1766DE NUL Marlies25BEL1:00:511:32 39.454DAM204GRIMBERGEN
5.1725VAN DE VOORDE Maxime30BEL1:00:521:32 39.435DAM208HEUSDEN
6.1767DE NUL Ruth27BEL1:00:591:32 39.366DAM216BRUSSEL
7.1768DECKERS Marie28BEL1:01:071:32 39.277DAM222UKKEL
8.1772HERMANS Sylvia38BEL1:02:131:34 38.588DAM248DIEST
9.2108RIVIERE Perrine34BEL1:03:041:35 38.069DAM313TERVUREN
10.1822PAIVA Ana32BRA1:03:101:35 38.0010DAM328ETTERBEEK
11.1776LODEWIJCKX Marianne37BEL1:03:121:35 37.9811DAM334GEEL
12.1762BRANDT Liza29BEL1:03:191:35 37.9112DAM341SINT JOOST
13.1053TOUSSAINT Pauline20BEL1:03:351:36 37.7513DAM357GEMBLOUX
14.1770ELTON Charlotte36BEL1:03:491:36 37.6114DAM373DILBEEK
15.1529VAN DRIESSCHE Fanny29BEL1:03:511:36 37.5915DAM375AUDERGHEM
16.1331HILLER Eleonore17FRA1:04:251:37 37.2616DAM396BRUXELLES
17.5377DE NEVE Loes28BEL1:05:301:39 36.6517DAM443GENT
18.1457LEENHOUTS-MARTIN Lisa39USA1:08:101:43 35.2118DAM569UCCLE
19.1330HILLER Marie-Louise15FRA1:08:301:43 35.0419DAM592BRUXELLES
20.1211DE HALLEUX Audrey33BEL1:08:331:43 35.0220DAM597UCCLE
21.579BAUWENS Marine35BEL1:08:481:44 34.8921DAM608LIMAL
22.966GUYOT Margaux25BEL1:09:281:45 34.5522DAM640OTTIGNIES
23.1113ENGSTEDT Rasa34SWE1:09:361:45 34.4923DAM647IXELLES
24.1729VAN WAEYENBERGE Sofie50BEL1:10:211:46 34.1224DAM693BRUSSELS
25.1389LINS Noémie26BEL1:10:211:46 34.1225DAM694VILVOORDE
26.657LEYSENS Anne25BEL1:10:321:46 34.0326DAM702
27.5382GUILLAUME Laura26BEL1:10:331:46 34.0227DAM703
28.1764CLAUWAERT Chloé23BEL1:10:341:46 34.0128DAM705ZWEVEGEM
29.791BOULAERT Bieke60BEL1:10:521:47 33.8729DAM712OOSTERZELE
30.1779ORISTIL Karmen38HRV1:11:091:47 33.7430DAM723ST-GILLES
31.1284MONTENAIR Anaïs26BEL1:11:471:48 33.4431DAM750WOLUWE SAINT LAMBERT
32.1388DUBOS Amandine27FRA1:12:221:49 33.1732DAM782BRUXELLES
33.642DEVENYNS Cécile33BEL1:12:321:49 33.1033DAM788
34.1723SOMERS Sue44BEL1:12:451:50 32.9934DAM797KERMT
35.1773ISSELÉ Louise30BEL1:12:471:50 32.9835DAM799ANDERLECHT
36.1726VAN DEN RUL Celine26BEL1:13:021:50 32.8736DAM808WEZEMBEEK-OPPEM
37.1760BASTIN Enya27BEL1:13:051:50 32.8537DAM810LEUVEN
38.1759AMPE Emily29BEL1:13:181:50 32.7538DAM818GENT
39.1299BARDONE Laura55ITA1:13:271:51 32.6839DAM821BRUSSELS
40.2016LENOIR Anne-Francoise52BEL1:13:331:51 32.6340DAM827BRUXELLES
41.2111SIMON Alexine18BEL1:13:581:51 32.4541DAM841BRUXELLES
42.1911NAGANT Audrey32BEL1:14:081:52 32.3842DAM852SAINT-GILLES
43.890DEWEZ Charline15BEL1:14:181:52 32.3143DAM859WOLUWE-SAINT-PIERRE
44.1452DE SMET Kirsten22BEL1:15:121:53 31.9244DAM890WIJGMAAL
45.1451GEVAERT Kato19BEL1:15:141:53 31.9145DAM891HAACHT
46.5488STALLAERTS Anouk27BEL1:15:531:54 31.6346DAM911IXELLES
47.2189DUCHATEAU Myriam59BEL1:16:011:55 31.5747DAM917RIXENSART
48.1765DE BOECK Ianthe32BEL1:16:111:55 31.5048DAM924ELSENE
49.259GYSEL Renate57BEL1:16:141:55 31.4849DAM929BAULERS
50.2073UMANS Lieselotte29BEL1:16:231:55 31.4350DAM938ANTWERPEN
51.1475KERSTEN Valérie42BEL1:16:241:55 31.4251DAM940BRUXELLES
52.643DUBUISSON Julie34BEL1:16:311:55 31.3752DAM944
53.1782ROCHE Irene48ESP1:17:091:56 31.1153DAM966WOLUWE SAINT PIERRE
54.1970SAINTIGNY Clara28FRA1:17:371:57 30.9254DAM980IXELLES
55.1031DOMECQ Céline41FRA1:17:421:57 30.8955DAM985WOLUWE-SAINT-PIERRE
56.943BUENO Bruna29ITA1:17:441:57 30.8856DAM988KOEKELBERG
57.1003PAULET Laurence43BEL1:18:161:58 30.6757DAM1006SCHAERBEEK
58.419MOEYS Katrien31BEL1:18:171:58 30.6658DAM1009SINT-GILLIS
59.247ESCAJADILLO Vera43CZE1:19:252:00 30.2359DAM1042BRUXELLES
60.2010VAN HACHT Pascale48BEL1:19:302:00 30.1960DAM1045LIMELETTE
61.1465LAMBERT Marie22BEL1:19:402:00 30.1361DAM1054BRUXELLES
62.275CASTELAIN Inge42BEL1:20:142:01 29.9162DAM1069KLUISBERGEN
63.1778MOSER Ellen28FRA1:20:292:01 29.8263DAM1076ETTERBEEK
64.2037PONCIN Mégane27BEL1:21:022:02 29.6264DAM1091LOUVAIN-LA-NEUVE
65.1742OOSTENDORP Allison39NLD1:21:042:02 29.6165DAM1093BRUXELLES
66.1774JACOB Yvette30BEL1:21:102:02 29.5766DAM1096BRUXELLES
67.1730VANDERPOOTEN Chris37BEL1:21:152:02 29.5467DAM1099BRUSSELS
68.1780PAREYN Silke30BEL1:21:232:03 29.4968DAM1105JABBEKE
69.547DEBACKERE Lieselotte30BEL1:21:472:03 29.3569DAM1117
70.1623VOTSOGLOU Angeliki43GRC1:22:062:04 29.2470DAM1129WOLUWE ST-PIERRE
71.2005COPPIETERS Odile22BEL1:22:352:04 29.0671DAM1143UCCLE
72.917BRUMAGNE Alexia31BEL1:22:562:05 28.9472DAM1156ANDERLECHT
73.901HENRIQUES DE GRANADA Cyrielle14BEL1:23:002:05 28.9273DAM1158BRUXELLES
74.747PIENIEZNY Elise35FRA1:23:062:05 28.8874DAM1164ST-GILLES
75.575VAN MOLLE Inge41BEL1:23:222:06 28.7975DAM1171BRUXELLES
76.1043WILLEMSE Laurence37BEL1:23:322:06 28.7376DAM1179SCHAARBEEK
77.528DOORNAERT Mélanie23BEL1:23:432:06 28.6777DAM1190BRUXELLES
78.1763CASTON Genevieve38BEL1:23:522:06 28.6278DAM1195IXELLES
79.1313ACCARAIN Alice20BEL1:24:002:06 28.5779DAM1199BRUXELLES
80.2067DROCHMANS Coralie29BEL1:24:012:07 28.5780DAM1200KRAAINEM
81.1193VANMECHELEN Olivia52BEL1:24:162:07 28.4981DAM1211BRUSSEL
82.5474SCHNEIDER Cecile30DEU1:24:222:07 28.4582DAM1214IXELLES
83.1252REZIG Fiala28FRA1:24:492:08 28.3083DAM1229ANVERS
84.516VAN GOIDSENHOVEN Annelies40BEL1:24:502:08 28.2984DAM1231BRUXELLES
85.515DECOSTER Sylvie41BEL1:24:512:08 28.2985DAM1232BRUXELLES
86.1661GALEGO FERREIRA Laetitia35BEL1:24:552:08 28.2686DAM1233VILVOORDE
87.1919DEN TANDT Anne51BEL1:25:032:08 28.2287DAM1237WOLUWE
88.1214LEBACQ Isabelle57BEL1:25:172:08 28.1488DAM1251BAISY-THY
89.781MEYKENS Christine39BEL1:25:312:09 28.0789DAM1254SENEFFE
90.2135ERMANS Marie34BEL1:25:542:09 27.9490DAM1261AUDERGHEM
91.1147DEBAILLIE Isabelle46BEL1:26:502:11 27.6491DAM1285BRUXELLES
92.203CARDOSO DA ROCHA Maria João56PRT1:26:532:11 27.6392DAM1286STROMBEEK BEVER
93.5385OANA Mija42BEL1:26:572:11 27.6093DAM1291OHAIN
94.1143BOITTE Margaux31BEL1:27:022:11 27.5894DAM1293SCHAERBEEK
95.1256OLIVIER Lucie15BEL1:27:222:12 27.4795DAM1301WOLUWE-SAINT-LAMBERT
96.1213GILLARD Sophie34BEL1:27:302:12 27.4396DAM1304HOEILAART
97.1668BROSSIER Sarah32BEL1:27:312:12 27.4397DAM1306NIVELLES
98.1666GOESEELS Severine32BEL1:27:352:12 27.4198DAM1307SCHAERBEEK
99.440LAMMENS Ines20BEL1:27:422:12 27.3799DAM1311MEERBEKE
100.1302DUBOIS Mahaut21BEL1:27:482:12 27.34100DAM1316BRUXELLES
101.2157COLASSIN Alicia27BEL1:28:002:12 27.28101DAM1322WEZEMBEEK-OPPEM
102.1962CEULENAERE Oriane25BEL1:28:262:13 27.14102DAM1332BRUXELLES
103.1046VANDEN DRIES Kristel52BEL1:28:502:14 27.02103DAM1337GRIMBERGEN
104.1067LOGNARD Mary-Odile54BEL1:29:002:14 26.97104DAM1340BRUXELLES
105.2167HERMANGE Claire38FRA1:29:102:14 26.92105DAM1345WOLUWE-SAINT-PIERRE
106.1173STODDART Lydia27GBR1:29:122:14 26.91106DAM1347BRUSSELS
107.753WAUTELET Ariane37BEL1:29:182:14 26.88107DAM1348WOLUWE-SAINT-LAMBERT
108.209HEINRICHS Geneviève54BEL1:29:462:15 26.74108DAM1357UCCLE
109.804LEGRAND Stéphanie25BEL1:29:482:15 26.73109DAM1361DILBEEK
110.2086MILANOVIC Tina35BEL1:30:002:15 26.67110DAM1368SCHAERBEEK
111.765SOKOLOWSKA Aneta45POL1:30:002:15 26.67111DAM1370BRUSSELS
112.519LECLÈRE Cécile34BEL1:30:262:16 26.54112DAM1379WATERMAEL
113.207VIEUXTEMPS Marguerite20BEL1:30:372:16 26.49113DAM1382UCCLE
114.1294MARTEAU Sophie30BEL1:30:512:17 26.42114DAM1388WATERLOO
115.331LEONARD Elodie38BEL1:30:532:17 26.41115DAM1390MEISE
116.329VANDERBECK Anouk32BEL1:30:582:17 26.39116DAM1392BRUXELLES
117.1358TANYA Lonergan47IRL1:31:042:17 26.36117DAM1394BRUSSELS
118.1201NUGENT NEIL Ruth50IRL1:31:052:17 26.35118DAM1395BRUSSELS
119.1359KULKARNI Judy45IRL1:31:062:17 26.35119DAM1396BRUXELLES
120.1267DILLON Karen51IRL1:31:072:17 26.34120DAM1398BRUSSELS
121.2158VEULEMANS Manon22BEL1:31:092:17 26.33121DAM1400BRUXELLES
122.5206PUTMAN Coralie39FRA1:31:132:17 26.31122DAM1402NECHIN
123.358VAN STRYDONCK Charlotte35BEL1:31:202:17 26.28123DAM1404BRUSSEL (WATERMAAL-BOSV.)
124.1293VAN DER HASSELT Marie30BEL1:31:262:18 26.25124DAM1406LA HULPE
125.2136WERQUIN Gaëlle33BEL1:31:332:18 26.22125DAM1409BRUXELLES
126.521FINN Tsillia26BEL1:31:472:18 26.15126DAM1416SCHAERBEEK
127.2145VEKEMANS Audrey25BEL1:31:492:18 26.14127DAM1418BRUXELLES
128.462MAERVOET Christel49BEL1:31:562:18 26.11128DAM1421BRUXELLES
129.1575SZAKONY Zsófia26BEL1:31:572:18 26.10129DAM1422BRUXELLES
130.430TAELMAN Amelie42BEL1:31:592:18 26.10130DAM1423FLOBECQ
131.345VAN SCHAREN Annelies35BEL1:32:132:19 26.03131DAM1427ITTERBEEK
132.344DE MONDT Charlotte29BEL1:32:142:19 26.02132DAM1428DEURNE
133.256DUMONCEAU Florine20BEL1:32:152:19 26.02133DAM1429LEVAL-TRAHEGNIES
134.2134BOUNAMEAUX Laurence34BEL1:32:562:20 25.83134DAM1444BRUXELLES
135.1718WITHOFS Charlotte49BEL1:33:182:20 25.72135DAM1449IXELLES
136.2146CLERFAYT Mathilde25BEL1:33:202:20 25.71136DAM1450BRUXELLES
137.5354MOLNÁR Gabriella43HUN1:33:312:21 25.67137DAM1457BRUSSELS
138.5386AUCHAPT Diane29FRA1:33:392:21 25.63138DAM1460SAINT-GILLES
139.1482SORO Livia20ITA1:34:192:22 25.45139DAM1476SCHAERBEEK
140.425RAHALI DOUKALI Chaima19BEL1:35:062:23 25.24140DAM1491KOEKELBERG
141.1208ARON Nadine61BEL1:35:322:24 25.12141DAM1493BRUSSELS
142.244SUWAN Saranya24BEL1:35:442:24 25.07142DAM1497UCCLE
143.243BRAEMS Carine57BEL1:35:452:24 25.07143DAM1498BEERSEL
144.1305STUHLMANN Anne-Rieke34DEU1:35:592:24 25.01144DAM1501BRUXELLES
145.2197SMETS Baptistine31BEL1:36:102:25 24.96145DAM1504BRUXELLES
146.1492VANKERKHOVEN Coralie47BEL1:37:012:26 24.74146DAM1515BRUXELLES
147.2040DE SMEDT Nathalie32BEL1:37:202:26 24.66147DAM1518WOLUWE
148.1005KEMPENEERS Isabelle40BEL1:37:412:27 24.57148DAM1522WOLUWE SAINT PIERRE
149.1340MORJANE Charlotte34BEL1:37:422:27 24.57149DAM1523SCHAERBEEK
150.2196DOUMONT Geraldine41BEL1:37:472:27 24.55150DAM1525WOLUWE SAINT LAMBERT
151.1049TEUGHELS Anne54BEL1:37:552:27 24.51151DAM1527BRUSSEL
152.1114GRANDJEAN Fabienne58BEL1:38:002:27 24.49152DAM1528BRUXELLES
153.472RAHMOUN Anis43BEL1:38:082:28 24.46153DAM1531BRUXELLES
154.1547DRESSOU Martine55BEL1:38:122:28 24.44154DAM1533ANDERLECHT
155.836NORIKO Watanabe39JPN1:39:042:29 24.23155DAM1545BRUSSELS
156.1153FOUCART Michele39BEL1:39:072:29 24.21156DAM1547UCCLE
157.992PLISNIER Nathalie42BEL1:39:082:29 24.21157DAM1548BRUXELLES
158.464BAUWENS Nathalie33BEL1:39:192:29 24.17158DAM1554PERWEZ
159.1621DEREPPE Fabienne49BEL1:39:192:29 24.17159DAM1555VILVOORDE
160.930PAPAR Zia33IND1:39:252:30 24.14160DAM1557BRUXELLES
161.713HERMANN Anne51BEL1:39:282:30 24.13161DAM1558FOREST
162.908HENDRICKX Chantal47BEL1:39:302:30 24.12162DAM1560BRUXELLES
163.715LE BOURGEOIS Garance15BEL1:39:382:30 24.09163DAM1561FOREST
164.878FERRANT Isabelle62BEL1:39:382:30 24.09164DAM1562BRUXELLES
165.1329ROUSSON Marianne52FRA1:40:002:30 24.00165DAM1566BRUXELLES
166.1627LECOMPTE Esther24BEL1:40:072:31 23.97166DAM1568BRUXELLES
167.1244HANSEN Anne46DEU1:40:182:31 23.93167DAM1573KRAAINEM
168.794GRIEZ Valerie41BEL1:40:282:31 23.89168DAM1577SCHAERBEEK
169.813BUREZ Louise22BEL1:40:342:31 23.87169DAM1578TEMSE
170.814MARIMAN Elise22BEL1:40:412:32 23.84170DAM1582SINT-NIKLAAS
171.815COPPEN Louise22BEL1:40:472:32 23.82171DAM1583BELSELE
172.817BOON Leen22BEL1:40:482:32 23.81172DAM1584SINAAI
173.2093NACKERS Fabienne46BEL1:41:502:33 23.57173DAM1588JETTE
174.1102VRIJENS France45BEL1:42:002:33 23.53174DAM1591BXL
175.1103VINCK Imgard43BEL1:42:012:34 23.53175DAM1592BXL
176.1458MEYER-CHARNEUX Erin48BEL1:42:132:34 23.48176DAM1593BRUXELLES
177.2159THEYS Nathalie49BEL1:42:172:34 23.47177DAM1594BRUXELLES
178.1832CHOW Nathalie44BEL1:43:082:35 23.27178DAM1603BRUGGE
179.1192VANOPDENBOSCH Eleonore36BEL1:43:382:36 23.16179DAM1608BRUXELLES
180.950JOVANOVSKA Dragana36FRA1:43:482:36 23.12180DAM1609LASNE
181.2110XENOPHONTOS Katia48BEL1:43:542:36 23.10181DAM1611SCHAERBEEK
182.486SCHOLLIERS Annelies30BEL1:44:002:36 23.08182DAM1614
183.5398EECKHOUT Hannah30BEL1:44:012:37 23.07183DAM1615
184.1983FOUSS Clotilde31BEL1:44:072:37 23.05184DAM1618AUDERGHEM
185.465LACKNER Sandrine40BEL1:45:002:38 22.86185DAM1627
186.573ROWLANDS Jasmine30GBR1:45:062:38 22.84186DAM1632BRUSSELS
187.469COULON Marie27BEL1:45:482:39 22.68187DAM1636BRUXELLES
188.1226KROPAITE Egle45LTU1:45:562:39 22.66188DAM1641BRUXELLES
189.239GRISSELIN Sarah43BEL1:46:002:39 22.65189DAM1643ROUCOURT
190.240DEBLIQUY Carole41BEL1:46:002:39 22.64190DAM1644WIERS
191.1009GOMEZ Sara27BEL1:46:232:40 22.56191DAM1646BRUXELLES
192.1008GERARD Sandrine40FRA1:47:052:41 22.41192DAM1651ETTERBEEK
193.767LECOMTE Valentine29BEL1:47:092:41 22.40193DAM1654WOLUWE SAINT LAMBERT
194.769LECOMTE Carole27BEL1:47:122:41 22.39194DAM1656SAINT-GILLES
195.805GRAJCAROVA KOFEL Karolina38POL1:47:372:42 22.30195DAM1660BRUXELLES
196.2140CARPET Francoise64BEL1:48:352:43 22.10196DAM1667BRUXELLES
197.669BERSEZ Virginie49BEL1:48:382:43 22.09197DAM1668BRUXELLES
198.1083SOPHIE Guillaume32BEL1:48:472:44 22.06198DAM1669BRUXELLES
199.1880DE VRIES Shari35BEL1:48:542:44 22.04199DAM1671VILVOORDE
200.624BURHIN Clémentine20BEL1:49:052:44 22.00200DAM1675BRUXELLES
201.661MOREELS Pauline23BEL1:49:062:44 22.00201DAM1676ALSEMBERG
202.660FORESTINI Laura20BEL1:49:132:44 21.98202DAM1678UCCLE
203.1198BELFROID Margot28BEL1:49:172:44 21.96203DAM1679ETTERBEEK
204.5459NAESSENS Marieke24BEL1:49:262:45 21.93204DAM1682BRUSSEL
205.444TABOUROT Hélène52FRA1:50:032:46 21.81205DAM1686BRUXELLES
206.659BURHIN Louise20BEL1:50:072:46 21.80206DAM1687UCCLE
207.313WEYERS Alice20BEL1:51:072:47 21.60207DAM1690BRUXELLES
208.314DEVEEN Clarisse20BEL1:51:082:47 21.60208DAM1691GANSHOREN
209.782DE COCK Frederique54BEL1:51:092:47 21.59209DAM1692BXL
210.1610STROUVEN Annick53BEL1:51:562:48 21.44210DAM1698HANNUT
211.2059DE FARIA P. LEANDRO Janine28BRA1:52:172:49 21.38211DAM1700WOLUWE-SAINT-LAMBERT
212.1684BARROS Priscilla38BRA1:52:182:49 21.37212DAM1701BRUXELLES
213.1136ARABADJIEVA Marta50BGR1:53:272:51 21.16213DAM1707BRUXELLES
214.1510REZETTE Victoria24BEL1:54:212:52 20.99214DAM1714WOLUWÉ-SAINT-LAMBERT
215.1527DE VIVAR Pénélope24BEL1:54:212:52 20.99215DAM1715VLEZENBEEK
216.1483PASERMAN Ruth52ITA1:55:102:53 20.84216DAM1718SCHAERBEEK
217.1169BEECKMANS Lorena35BEL1:55:332:54 20.77217DAM1719CLABECQ
218.2105AMIEL Sophie34BEL1:56:342:55 20.59218DAM1724IXELLES
219.565SZTALBERG Cécile58BEL1:57:212:57 20.45219DAM1726WATERMAEL-BOITSFORT
220.956CAMPOSQ Marta40ESP1:57:342:57 20.42220DAM1727BRUSSELS
221.1646SAPRE Gayatri39IND1:57:472:57 20.38221DAM1728BRUSSELS
222.2092BORN Emmanuelle49BEL1:57:552:57 20.35222DAM1729JETTE
223.2015ATKEKAR Sayali34IND1:58:542:59 20.19223DAM1734BRUSSELS
224.5463VERSPEETEN Laura26BEL1:59:303:00 20.08224DAM1736BRUSSEL
225.5460PETERS Kathleen24BEL1:59:343:00 20.07225DAM1738BRUSSEL
226.5373JAMET Sophie51FRA1:59:353:00 20.07226DAM1740BRUXELLES
227.1721ROOBAERT Barbara29BEL1:59:383:00 20.06227DAM1743BRUSSELS
228.876DELHAYE Sabine56BEL1:59:413:00 20.05228DAM1745BXL
229.1997LUUKKONEN Tuula58FIN1:59:433:00 20.05229DAM1746BRUXELLES
230.379DE BOECK Liliane59BEL1:59:463:00 20.04230DAM1747JETTE
231.584TOP Eleonore48FRA1:59:523:00 20.02231DAM1749UCCLE
232.750VAN MAELE Brigitte64BEL2:00:143:01 19.96232DAM1750BRUXELLES
233.2088BLEYEN Linda51BEL2:00:393:01 19.89233DAM1754PROFONDEVILLE
234.1744DE CAEVEL Lise27BEL2:02:543:05 19.53234DAM1759TOURNAI
235.1615STRUBBE Ingeborg52BEL2:03:143:05 19.48235DAM1763BRUSSELS
236.1754MAHDAD Amina22BEL2:03:143:05 19.48236DAM1764BRUXELLES
237.685DE BOCK Joëlle61BEL2:03:433:06 19.40237DAM1766BUVRINNE
238.898SWIRYDOWICZ Marta37BEL2:04:163:07 19.31238DAM1768BRUXELLES
239.875DE NALECZ GORSKI Caroline57FRA2:06:323:10 18.97239DAM1772BRUXELLES
240.874DAUVRIN Anne66BEL2:06:323:10 18.97240DAM1773BRUXELLES
241.997MENDES MOSCARDINI Amanda39BEL2:10:373:16 18.38241DAM1782AUDERGHEM
242.2162SVENSON Bruna30BEL2:10:493:17 18.35242DAM1785ETTERBEEK
243.970VAN DOMBURG Marjan54NLD2:11:503:18 18.21243DAM1789OVERIJSE
244.1589VERSTRAETEN Veronique48BEL2:12:503:20 18.07244DAM1790STROMBEEK-BEVER
245.1731VERBIST Els60BEL2:15:243:24 17.73245DAM1795SINT-PIETERS-LEEUW
246.1199CORCUERA FIGUERAS Carolina32ESP2:32:453:50 15.71246DAM1801BRUXELLES
DNF1146BEYAERT Marine16BELDAMBRUXELLES
DNF1761BORGERS Julie31BELDAMTERVUREN
DNF1528MERCIER Isabelle53FRADAMSCHAERBEEK
DNF234PASSEMIERS Françoise59BELDAMBRUXELLES
DNF1111PATTERSON Jeneva53USADAMBRUSSELS
DNF1343STAINIER Valerie37BELDAMSTERREBEEK
DNF1727VAN LATHEM Barbara32BELDAMBRUSSELS
DNF1509VANELSLANDER Beatrice57BELDAMKRAAINEM
DNF: did not finish; DSQ: disqualified; Speed in km/h
Page: [1]